sensor_id;sensor_type;location;lat;lon;timestamp;pressure;altitude;pressure_sealevel;temperature;humidity
62057;BME280;48016;50.284;18.860;2022-07-23T00:00:18;98208.20;;;20.46;59.39
62057;BME280;48016;50.284;18.860;2022-07-23T00:02:46;98213.70;;;20.46;59.89
62057;BME280;48016;50.284;18.860;2022-07-23T00:05:13;98204.16;;;20.43;60.09
62057;BME280;48016;50.284;18.860;2022-07-23T00:07:40;98202.86;;;20.41;59.79
62057;BME280;48016;50.284;18.860;2022-07-23T00:10:08;98215.79;;;20.40;59.66
62057;BME280;48016;50.284;18.860;2022-07-23T00:12:36;98213.35;;;20.39;60.20
62057;BME280;48016;50.284;18.860;2022-07-23T00:15:05;98210.94;;;20.37;59.78
62057;BME280;48016;50.284;18.860;2022-07-23T00:17:33;98205.45;;;20.37;60.11
62057;BME280;48016;50.284;18.860;2022-07-23T00:20:00;98207.39;;;20.37;60.17
62057;BME280;48016;50.284;18.860;2022-07-23T00:22:27;98213.19;;;20.35;60.28
62057;BME280;48016;50.284;18.860;2022-07-23T00:24:56;98212.39;;;20.35;60.38
62057;BME280;48016;50.284;18.860;2022-07-23T00:27:23;98201.41;;;20.35;60.75
62057;BME280;48016;50.284;18.860;2022-07-23T00:29:51;98206.90;;;20.35;60.62
62057;BME280;48016;50.284;18.860;2022-07-23T00:32:18;98212.39;;;20.35;60.84
62057;BME280;48016;50.284;18.860;2022-07-23T00:34:45;98213.50;;;20.33;60.48
62057;BME280;48016;50.284;18.860;2022-07-23T00:37:12;98209.95;;;20.33;61.00
62057;BME280;48016;50.284;18.860;2022-07-23T00:39:39;98211.89;;;20.32;60.88
62057;BME280;48016;50.284;18.860;2022-07-23T00:42:06;98213.03;;;20.31;60.54
62057;BME280;48016;50.284;18.860;2022-07-23T00:44:33;98210.94;;;20.28;59.92
62057;BME280;48016;50.284;18.860;2022-07-23T00:47:00;98218.03;;;20.29;60.15
62057;BME280;48016;50.284;18.860;2022-07-23T00:49:28;98215.13;;;20.26;60.42
62057;BME280;48016;50.284;18.860;2022-07-23T00:51:56;98214.96;;;20.22;60.09
62057;BME280;48016;50.284;18.860;2022-07-23T00:54:25;98216.41;;;20.20;60.23
62057;BME280;48016;50.284;18.860;2022-07-23T00:56:53;98213.97;;;20.18;60.42
62057;BME280;48016;50.284;18.860;2022-07-23T00:59:20;98221.70;;;20.16;60.49
62057;BME280;48016;50.284;18.860;2022-07-23T01:01:48;98212.20;;;20.14;60.79
62057;BME280;48016;50.284;18.860;2022-07-23T01:04:15;98212.84;;;20.11;61.58
62057;BME280;48016;50.284;18.860;2022-07-23T01:06:44;98207.16;;;20.07;61.77
62057;BME280;48016;50.284;18.860;2022-07-23T01:09:12;98211.69;;;20.03;62.02
62057;BME280;48016;50.284;18.860;2022-07-23T01:11:40;98206.83;;;20.00;62.48
62057;BME280;48016;50.284;18.860;2022-07-23T01:14:15;98212.33;;;20.00;62.86
62057;BME280;48016;50.284;18.860;2022-07-23T01:16:44;98214.56;;;19.98;63.35
62057;BME280;48016;50.284;18.860;2022-07-23T01:19:13;98207.47;;;19.97;63.52
62057;BME280;48016;50.284;18.860;2022-07-23T01:21:43;98206.48;;;19.93;63.80
62057;BME280;48016;50.284;18.860;2022-07-23T01:24:11;98199.69;;;19.90;64.07
62057;BME280;48016;50.284;18.860;2022-07-23T01:26:41;98200.33;;;19.87;64.04
62057;BME280;48016;50.284;18.860;2022-07-23T01:29:09;98197.42;;;19.83;64.34
62057;BME280;48016;50.284;18.860;2022-07-23T01:31:36;98194.81;;;19.78;64.05
62057;BME280;48016;50.284;18.860;2022-07-23T01:34:03;98193.84;;;19.74;65.62
62057;BME280;48016;50.284;18.860;2022-07-23T01:36:31;98194.31;;;19.68;64.48
62057;BME280;48016;50.284;18.860;2022-07-23T01:38:58;98197.36;;;19.66;64.96
62057;BME280;48016;50.284;18.860;2022-07-23T01:41:25;98193.28;;;19.63;64.68
62057;BME280;48016;50.284;18.860;2022-07-23T01:43:52;98201.84;;;19.62;65.45
62057;BME280;48016;50.284;18.860;2022-07-23T01:46:19;98199.09;;;19.62;65.20
62057;BME280;48016;50.284;18.860;2022-07-23T01:48:46;98201.34;;;19.60;65.45
62057;BME280;48016;50.284;18.860;2022-07-23T01:51:13;98200.03;;;19.57;65.06
62057;BME280;48016;50.284;18.860;2022-07-23T01:53:41;98197.13;;;19.54;64.23
62057;BME280;48016;50.284;18.860;2022-07-23T01:56:08;98195.81;;;19.51;64.16
62057;BME280;48016;50.284;18.860;2022-07-23T01:58:35;98192.91;;;19.48;64.49
62057;BME280;48016;50.284;18.860;2022-07-23T02:01:02;98197.39;;;19.43;65.21
62057;BME280;48016;50.284;18.860;2022-07-23T02:03:29;98201.09;;;19.39;65.15
62057;BME280;48016;50.284;18.860;2022-07-23T02:05:56;98194.30;;;19.36;64.98
62057;BME280;48016;50.284;18.860;2022-07-23T02:08:23;98205.09;;;19.33;64.60
62057;BME280;48016;50.284;18.860;2022-07-23T02:10:50;98199.11;;;19.31;64.28
62057;BME280;48016;50.284;18.860;2022-07-23T02:13:18;98201.34;;;19.29;64.18
62057;BME280;48016;50.284;18.860;2022-07-23T02:15:47;98202.48;;;19.28;64.53
62057;BME280;48016;50.284;18.860;2022-07-23T02:18:15;98203.91;;;19.25;64.62
62057;BME280;48016;50.284;18.860;2022-07-23T02:20:42;98203.91;;;19.25;64.99
62057;BME280;48016;50.284;18.860;2022-07-23T02:23:11;98204.72;;;19.26;65.25
62057;BME280;48016;50.284;18.860;2022-07-23T02:25:38;98200.67;;;19.23;66.05
62057;BME280;48016;50.284;18.860;2022-07-23T02:28:05;98195.99;;;19.24;65.77
62057;BME280;48016;50.284;18.860;2022-07-23T02:30:33;98194.09;;;19.24;65.75
62057;BME280;48016;50.284;18.860;2022-07-23T02:33:00;98200.67;;;19.23;66.33
62057;BME280;48016;50.284;18.860;2022-07-23T02:35:27;98200.50;;;19.19;66.38
62057;BME280;48016;50.284;18.860;2022-07-23T02:37:54;98190.67;;;19.18;66.03
62057;BME280;48016;50.284;18.860;2022-07-23T02:40:21;98190.97;;;19.17;65.49
62057;BME280;48016;50.284;18.860;2022-07-23T02:42:48;98182.58;;;19.13;65.61
62057;BME280;48016;50.284;18.860;2022-07-23T02:45:15;98184.51;;;19.13;65.90
62057;BME280;48016;50.284;18.860;2022-07-23T02:47:42;98189.66;;;19.14;65.75
62057;BME280;48016;50.284;18.860;2022-07-23T02:50:09;98182.24;;;19.15;66.13
62057;BME280;48016;50.284;18.860;2022-07-23T02:52:38;98176.77;;;19.15;66.56
62057;BME280;48016;50.284;18.860;2022-07-23T02:55:06;98180.01;;;19.17;65.83
62057;BME280;48016;50.284;18.860;2022-07-23T02:57:34;98177.77;;;19.19;66.27
62057;BME280;48016;50.284;18.860;2022-07-23T03:00:01;98182.29;;;19.24;66.46
62057;BME280;48016;50.284;18.860;2022-07-23T03:02:28;98178.11;;;19.26;66.44
62057;BME280;48016;50.284;18.860;2022-07-23T03:04:55;98182.16;;;19.29;67.31
62057;BME280;48016;50.284;18.860;2022-07-23T03:07:22;98183.47;;;19.31;66.53
62057;BME280;48016;50.284;18.860;2022-07-23T03:09:50;98188.32;;;19.34;66.21
62057;BME280;48016;50.284;18.860;2022-07-23T03:12:17;98184.14;;;19.37;66.33
62057;BME280;48016;50.284;18.860;2022-07-23T03:14:44;98188.48;;;19.38;65.83
62057;BME280;48016;50.284;18.860;2022-07-23T03:17:11;98184.31;;;19.40;65.50
62057;BME280;48016;50.284;18.860;2022-07-23T03:19:38;98182.08;;;19.42;66.18
62057;BME280;48016;50.284;18.860;2022-07-23T03:22:05;98186.75;;;19.42;66.26
62057;BME280;48016;50.284;18.860;2022-07-23T03:24:32;98190.80;;;19.45;65.69
62057;BME280;48016;50.284;18.860;2022-07-23T03:27:19;98190.47;;;19.46;65.90
62057;BME280;48016;50.284;18.860;2022-07-23T03:29:46;98179.20;;;19.48;65.89
62057;BME280;48016;50.284;18.860;2022-07-23T03:32:13;98174.69;;;19.52;65.90
62057;BME280;48016;50.284;18.860;2022-07-23T03:34:40;98182.78;;;19.57;66.41
62057;BME280;48016;50.284;18.860;2022-07-23T03:37:07;98179.91;;;19.62;66.25
62057;BME280;48016;50.284;18.860;2022-07-23T03:39:34;98182.04;;;19.65;66.80
62057;BME280;48016;50.284;18.860;2022-07-23T03:42:01;98183.51;;;19.71;66.66
62057;BME280;48016;50.284;18.860;2022-07-23T03:44:28;98189.33;;;19.78;66.92
62057;BME280;48016;50.284;18.860;2022-07-23T03:46:55;98191.13;;;19.83;67.40
62057;BME280;48016;50.284;18.860;2022-07-23T03:49:22;98194.53;;;19.89;66.76
62057;BME280;48016;50.284;18.860;2022-07-23T03:51:49;98197.14;;;19.94;66.57
62057;BME280;48016;50.284;18.860;2022-07-23T03:54:16;98190.38;;;20.00;66.25
62057;BME280;48016;50.284;18.860;2022-07-23T03:56:43;98196.52;;;20.05;66.93
62057;BME280;48016;50.284;18.860;2022-07-23T03:59:10;98186.36;;;20.15;67.05
62057;BME280;48016;50.284;18.860;2022-07-23T04:01:37;98193.33;;;20.29;66.00
62057;BME280;48016;50.284;18.860;2022-07-23T04:04:04;98192.69;;;20.50;65.99
62057;BME280;48016;50.284;18.860;2022-07-23T04:06:32;98191.75;;;20.81;65.80
62057;BME280;48016;50.284;18.860;2022-07-23T04:08:59;98181.16;;;21.17;65.91
62057;BME280;48016;50.284;18.860;2022-07-23T04:11:25;98190.65;;;21.46;65.90
62057;BME280;48016;50.284;18.860;2022-07-23T04:13:53;98192.49;;;21.72;65.07
62057;BME280;48016;50.284;18.860;2022-07-23T04:16:20;98197.06;;;21.97;64.74
62057;BME280;48016;50.284;18.860;2022-07-23T04:18:46;98195.17;;;22.19;64.68
62057;BME280;48016;50.284;18.860;2022-07-23T04:21:13;98196.69;;;22.37;63.72
62057;BME280;48016;50.284;18.860;2022-07-23T04:23:40;98200.84;;;22.43;63.21
62057;BME280;48016;50.284;18.860;2022-07-23T04:26:08;98194.28;;;22.56;62.97
62057;BME280;48016;50.284;18.860;2022-07-23T04:28:34;98191.14;;;22.79;62.61
62057;BME280;48016;50.284;18.860;2022-07-23T04:31:02;98190.13;;;23.05;62.17
62057;BME280;48016;50.284;18.860;2022-07-23T04:33:29;98189.13;;;23.09;61.95
62057;BME280;48016;50.284;18.860;2022-07-23T04:35:56;98189.97;;;23.34;61.72
62057;BME280;48016;50.284;18.860;2022-07-23T04:38:24;98185.11;;;23.77;61.26
62057;BME280;48016;50.284;18.860;2022-07-23T04:40:51;98186.13;;;24.09;60.77
62057;BME280;48016;50.284;18.860;2022-07-23T04:43:19;98182.68;;;24.24;60.30
62057;BME280;48016;50.284;18.860;2022-07-23T04:45:46;98193.09;;;24.55;59.61
62057;BME280;48016;50.284;18.860;2022-07-23T04:48:13;98192.27;;;24.95;58.85
62057;BME280;48016;50.284;18.860;2022-07-23T04:50:40;98187.38;;;25.33;57.88
62057;BME280;48016;50.284;18.860;2022-07-23T04:53:09;98186.66;;;25.36;56.82
62057;BME280;48016;50.284;18.860;2022-07-23T04:55:36;98182.63;;;25.17;56.54
62057;BME280;48016;50.284;18.860;2022-07-23T04:58:03;98185.39;;;25.17;56.69
62057;BME280;48016;50.284;18.860;2022-07-23T05:00:30;98178.28;;;25.04;56.32
62057;BME280;48016;50.284;18.860;2022-07-23T05:02:57;98173.52;;;24.89;56.48
62057;BME280;48016;50.284;18.860;2022-07-23T05:05:25;98178.23;;;25.16;56.96
62057;BME280;48016;50.284;18.860;2022-07-23T05:07:52;98183.92;;;25.52;55.94
62057;BME280;48016;50.284;18.860;2022-07-23T05:10:19;98190.28;;;25.84;55.04
62057;BME280;48016;50.284;18.860;2022-07-23T05:12:46;98181.63;;;26.21;54.74
62057;BME280;48016;50.284;18.860;2022-07-23T05:15:14;98183.08;;;26.50;53.78
62057;BME280;48016;50.284;18.860;2022-07-23T05:17:41;98184.51;;;26.79;53.06
62057;BME280;48016;50.284;18.860;2022-07-23T05:20:09;98176.38;;;27.09;51.99
62057;BME280;48016;50.284;18.860;2022-07-23T05:22:36;98171.97;;;27.27;51.58
62057;BME280;48016;50.284;18.860;2022-07-23T05:25:03;98173.27;;;27.57;50.59
62057;BME280;48016;50.284;18.860;2022-07-23T05:27:31;98172.02;;;27.77;48.69
62057;BME280;48016;50.284;18.860;2022-07-23T05:29:59;98173.86;;;27.89;47.28
62057;BME280;48016;50.284;18.860;2022-07-23T05:32:26;98174.39;;;27.98;47.60
62057;BME280;48016;50.284;18.860;2022-07-23T05:34:53;98176.55;;;27.85;46.56
62057;BME280;48016;50.284;18.860;2022-07-23T05:37:20;98175.50;;;27.93;47.47
62057;BME280;48016;50.284;18.860;2022-07-23T05:39:47;98171.44;;;28.14;47.48
62057;BME280;48016;50.284;18.860;2022-07-23T05:42:14;98173.86;;;28.42;47.27
62057;BME280;48016;50.284;18.860;2022-07-23T05:44:42;98165.31;;;28.58;45.76
62057;BME280;48016;50.284;18.860;2022-07-23T05:47:09;98164.19;;;28.63;46.50
62057;BME280;48016;50.284;18.860;2022-07-23T05:49:37;98160.69;;;28.69;46.16
62057;BME280;48016;50.284;18.860;2022-07-23T05:52:08;98153.70;;;28.82;46.33
62057;BME280;48016;50.284;18.860;2022-07-23T05:54:36;98150.65;;;28.95;45.95
62057;BME280;48016;50.284;18.860;2022-07-23T05:57:03;98137.80;;;29.17;46.49
62057;BME280;48016;50.284;18.860;2022-07-23T05:59:31;98134.97;;;29.54;46.14
62057;BME280;48016;50.284;18.860;2022-07-23T06:01:58;98137.27;;;29.93;46.41
62057;BME280;48016;50.284;18.860;2022-07-23T06:04:25;98131.06;;;30.17;45.73
62057;BME280;48016;50.284;18.860;2022-07-23T06:06:52;98127.59;;;30.35;45.62
62057;BME280;48016;50.284;18.860;2022-07-23T06:09:19;98119.30;;;30.49;44.61
62057;BME280;48016;50.284;18.860;2022-07-23T06:11:46;98121.73;;;30.61;44.08
62057;BME280;48016;50.284;18.860;2022-07-23T06:14:13;98113.80;;;30.78;43.41
62057;BME280;48016;50.284;18.860;2022-07-23T06:16:40;98116.69;;;30.96;43.51
62057;BME280;48016;50.284;18.860;2022-07-23T06:19:08;98114.72;;;31.18;43.24
62057;BME280;48016;50.284;18.860;2022-07-23T06:21:35;98110.79;;;31.37;42.43
62057;BME280;48016;50.284;18.860;2022-07-23T06:24:02;98111.97;;;31.36;41.63
62057;BME280;48016;50.284;18.860;2022-07-23T06:26:29;98110.38;;;31.49;41.57
62057;BME280;48016;50.284;18.860;2022-07-23T06:28:56;98118.77;;;31.74;41.14
62057;BME280;48016;50.284;18.860;2022-07-23T06:31:23;98122.73;;;32.02;41.37
62057;BME280;48016;50.284;18.860;2022-07-23T06:33:51;98125.89;;;32.22;40.34
62057;BME280;48016;50.284;18.860;2022-07-23T06:36:18;98123.44;;;32.45;40.42
62057;BME280;48016;50.284;18.860;2022-07-23T06:38:45;98132.14;;;32.72;39.90
62057;BME280;48016;50.284;18.860;2022-07-23T06:41:12;98125.66;;;32.90;39.07
62057;BME280;48016;50.284;18.860;2022-07-23T06:43:39;98125.54;;;33.11;39.48
62057;BME280;48016;50.284;18.860;2022-07-23T06:46:06;98125.81;;;33.31;39.83
62057;BME280;48016;50.284;18.860;2022-07-23T06:48:33;98127.75;;;33.38;38.46
62057;BME280;48016;50.284;18.860;2022-07-23T06:51:02;98126.14;;;33.40;37.85
62057;BME280;48016;50.284;18.860;2022-07-23T06:53:30;98129.30;;;33.46;38.00
62057;BME280;48016;50.284;18.860;2022-07-23T06:55:57;98139.23;;;33.58;38.10
62057;BME280;48016;50.284;18.860;2022-07-23T06:58:24;98123.17;;;33.65;37.89
62057;BME280;48016;50.284;18.860;2022-07-23T07:00:51;98119.84;;;33.78;37.90
62057;BME280;48016;50.284;18.860;2022-07-23T07:03:18;98111.75;;;33.87;38.06
62057;BME280;48016;50.284;18.860;2022-07-23T07:05:46;98117.25;;;33.97;37.90
62057;BME280;48016;50.284;18.860;2022-07-23T07:08:13;98110.39;;;34.06;37.17
62057;BME280;48016;50.284;18.860;2022-07-23T07:10:40;98112.03;;;34.00;36.69
62057;BME280;48016;50.284;18.860;2022-07-23T07:13:07;98121.59;;;34.02;37.56
62057;BME280;48016;50.284;18.860;2022-07-23T07:15:34;98116.34;;;34.11;37.49
62057;BME280;48016;50.284;18.860;2022-07-23T07:18:01;98122.64;;;34.23;37.36
62057;BME280;48016;50.284;18.860;2022-07-23T07:20:29;98124.52;;;34.33;37.14
62057;BME280;48016;50.284;18.860;2022-07-23T07:22:56;98110.48;;;34.33;37.21
62057;BME280;48016;50.284;18.860;2022-07-23T07:25:23;98112.73;;;34.45;36.63
62057;BME280;48016;50.284;18.860;2022-07-23T07:27:50;98110.77;;;34.42;36.42
62057;BME280;48016;50.284;18.860;2022-07-23T07:30:17;98121.08;;;34.52;37.01
62057;BME280;48016;50.284;18.860;2022-07-23T07:32:44;98117.80;;;34.61;36.71
62057;BME280;48016;50.284;18.860;2022-07-23T07:35:11;98124.08;;;34.72;36.83
62057;BME280;48016;50.284;18.860;2022-07-23T07:37:38;98128.33;;;34.84;36.77
62057;BME280;48016;50.284;18.860;2022-07-23T07:40:06;98133.83;;;34.91;37.05
62057;BME280;48016;50.284;18.860;2022-07-23T07:42:34;98134.22;;;34.93;36.50
62057;BME280;48016;50.284;18.860;2022-07-23T07:45:01;98130.56;;;34.96;36.14
62057;BME280;48016;50.284;18.860;2022-07-23T07:47:28;98131.03;;;34.91;35.31
62057;BME280;48016;50.284;18.860;2022-07-23T07:49:55;98128.98;;;34.95;36.08
62057;BME280;48016;50.284;18.860;2022-07-23T07:52:22;98136.91;;;35.00;36.16
62057;BME280;48016;50.284;18.860;2022-07-23T07:54:49;98136.50;;;35.02;35.54
62057;BME280;48016;50.284;18.860;2022-07-23T07:57:17;98124.89;;;35.00;35.86
62057;BME280;48016;50.284;18.860;2022-07-23T07:59:44;98129.77;;;34.96;35.86
62057;BME280;48016;50.284;18.860;2022-07-23T08:02:11;98119.73;;;34.95;36.29
62057;BME280;48016;50.284;18.860;2022-07-23T08:04:38;98115.28;;;34.97;35.94
62057;BME280;48016;50.284;18.860;2022-07-23T08:07:05;98123.71;;;34.97;36.27
62057;BME280;48016;50.284;18.860;2022-07-23T08:09:32;98118.91;;;34.98;35.65
62057;BME280;48016;50.284;18.860;2022-07-23T08:11:59;98108.94;;;34.93;35.18
62057;BME280;48016;50.284;18.860;2022-07-23T08:14:26;98098.11;;;34.92;35.78
62057;BME280;48016;50.284;18.860;2022-07-23T08:16:53;98094.16;;;34.89;34.91
62057;BME280;48016;50.284;18.860;2022-07-23T08:19:20;98085.17;;;34.71;34.98
62057;BME280;48016;50.284;18.860;2022-07-23T08:21:47;98082.48;;;34.63;35.11
62057;BME280;48016;50.284;18.860;2022-07-23T08:24:15;98085.80;;;34.55;34.44
62057;BME280;48016;50.284;18.860;2022-07-23T08:26:42;98085.80;;;34.51;34.11
62057;BME280;48016;50.284;18.860;2022-07-23T08:29:10;98094.59;;;34.53;34.75
62057;BME280;48016;50.284;18.860;2022-07-23T08:31:37;98097.03;;;34.55;34.62
62057;BME280;48016;50.284;18.860;2022-07-23T08:34:06;98093.78;;;34.56;34.36
62057;BME280;48016;50.284;18.860;2022-07-23T08:36:33;98089.78;;;34.57;34.61
62057;BME280;48016;50.284;18.860;2022-07-23T08:39:00;98102.59;;;34.58;34.33
62057;BME280;48016;50.284;18.860;2022-07-23T08:41:30;98088.94;;;34.60;34.78
62057;BME280;48016;50.284;18.860;2022-07-23T08:43:57;98080.08;;;34.62;34.04
62057;BME280;48016;50.284;18.860;2022-07-23T08:46:27;98092.92;;;34.63;33.95
62057;BME280;48016;50.284;18.860;2022-07-23T08:48:55;98084.80;;;34.69;33.56
62057;BME280;48016;50.284;18.860;2022-07-23T08:51:26;98086.78;;;34.72;33.06
62057;BME280;48016;50.284;18.860;2022-07-23T08:53:56;98099.59;;;34.73;32.51
62057;BME280;48016;50.284;18.860;2022-07-23T08:56:23;98094.36;;;34.75;32.90
62057;BME280;48016;50.284;18.860;2022-07-23T08:58:50;98097.96;;;34.75;32.19
62057;BME280;48016;50.284;18.860;2022-07-23T09:01:19;98089.95;;;34.74;32.44
62057;BME280;48016;50.284;18.860;2022-07-23T09:03:47;98095.21;;;34.72;31.90
62057;BME280;48016;50.284;18.860;2022-07-23T09:06:14;98087.58;;;34.72;32.21
62057;BME280;48016;50.284;18.860;2022-07-23T09:08:43;98089.86;;;34.81;31.98
62057;BME280;48016;50.284;18.860;2022-07-23T09:11:17;98093.02;;;34.83;31.49
62057;BME280;48016;50.284;18.860;2022-07-23T09:13:52;98092.75;;;34.74;31.28
62057;BME280;48016;50.284;18.860;2022-07-23T09:16:25;98081.91;;;34.76;31.87
62057;BME280;48016;50.284;18.860;2022-07-23T09:19:02;98088.90;;;34.91;31.72
62057;BME280;48016;50.284;18.860;2022-07-23T09:21:48;98083.98;;;34.99;32.03
62057;BME280;48016;50.284;18.860;2022-07-23T09:24:15;98096.30;;;35.08;31.30
62057;BME280;48016;50.284;18.860;2022-07-23T09:26:48;98089.83;;;35.12;30.51
62057;BME280;48016;50.284;18.860;2022-07-23T09:31:50;98092.73;;;35.04;31.04
62057;BME280;48016;50.284;18.860;2022-07-23T09:36:56;98099.16;;;34.74;30.32
62057;BME280;48016;50.284;18.860;2022-07-23T09:39:32;98087.80;;;34.20;30.37
62057;BME280;48016;50.284;18.860;2022-07-23T09:42:19;98076.03;;;33.94;30.67
62057;BME280;48016;50.284;18.860;2022-07-23T09:44:54;98079.28;;;33.89;31.40
62057;BME280;48016;50.284;18.860;2022-07-23T09:47:24;98086.52;;;33.87;31.30
62057;BME280;48016;50.284;18.860;2022-07-23T09:52:30;98080.16;;;33.83;31.12
62057;BME280;48016;50.284;18.860;2022-07-23T09:55:02;98080.07;;;33.90;31.81
62057;BME280;48016;50.284;18.860;2022-07-23T09:57:31;98080.02;;;33.97;31.84
62057;BME280;48016;50.284;18.860;2022-07-23T10:00:02;98077.55;;;34.03;31.43
62057;BME280;48016;50.284;18.860;2022-07-23T10:02:32;98073.50;;;34.07;31.30
62057;BME280;48016;50.284;18.860;2022-07-23T10:05:01;98075.81;;;34.16;30.90
62057;BME280;48016;50.284;18.860;2022-07-23T10:07:33;98076.98;;;34.18;30.16
62057;BME280;48016;50.284;18.860;2022-07-23T10:10:02;98070.53;;;34.22;30.61
62057;BME280;48016;50.284;18.860;2022-07-23T10:12:30;98070.81;;;34.31;30.71
62057;BME280;48016;50.284;18.860;2022-07-23T10:15:17;98067.17;;;34.34;30.78
62057;BME280;48016;50.284;18.860;2022-07-23T10:17:44;98063.63;;;34.30;30.77
62057;BME280;48016;50.284;18.860;2022-07-23T10:20:11;98060.36;;;34.35;30.99
62057;BME280;48016;50.284;18.860;2022-07-23T10:22:42;98059.93;;;34.36;31.01
62057;BME280;48016;50.284;18.860;2022-07-23T10:25:35;98059.01;;;34.47;31.08
62057;BME280;48016;50.284;18.860;2022-07-23T10:33:44;98058.13;;;34.84;30.73
62057;BME280;48016;50.284;18.860;2022-07-23T10:36:22;98049.33;;;34.82;30.69
62057;BME280;48016;50.284;18.860;2022-07-23T10:39:10;98048.68;;;34.71;30.71
62057;BME280;48016;50.284;18.860;2022-07-23T10:41:41;98048.36;;;34.65;30.66
62057;BME280;48016;50.284;18.860;2022-07-23T10:44:11;98056.45;;;34.59;30.38
62057;BME280;48016;50.284;18.860;2022-07-23T10:46:59;98046.17;;;34.46;30.68
62057;BME280;48016;50.284;18.860;2022-07-23T10:49:46;98043.53;;;34.35;31.38
62057;BME280;48016;50.284;18.860;2022-07-23T10:52:21;98049.03;;;34.42;30.86
62057;BME280;48016;50.284;18.860;2022-07-23T10:54:51;98031.35;;;34.45;30.76
62057;BME280;48016;50.284;18.860;2022-07-23T10:57:23;98031.73;;;34.47;31.24
62057;BME280;48016;50.284;18.860;2022-07-23T11:02:40;98038.88;;;34.55;30.90
62057;BME280;48016;50.284;18.860;2022-07-23T11:05:10;98032.80;;;34.60;31.11
62057;BME280;48016;50.284;18.860;2022-07-23T11:10:34;98023.78;;;34.42;30.75
62057;BME280;48016;50.284;18.860;2022-07-23T11:16:11;98017.16;;;34.29;30.88
62057;BME280;48016;50.284;18.860;2022-07-23T11:24:12;98011.80;;;34.07;30.68
62057;BME280;48016;50.284;18.860;2022-07-23T11:31:58;98003.59;;;34.24;31.20
62057;BME280;48016;50.284;18.860;2022-07-23T11:34:33;98012.39;;;34.26;30.98
62057;BME280;48016;50.284;18.860;2022-07-23T11:37:03;98003.54;;;34.27;30.91
62057;BME280;48016;50.284;18.860;2022-07-23T11:39:31;98001.80;;;34.37;30.75
62057;BME280;48016;50.284;18.860;2022-07-23T11:42:01;97997.73;;;34.41;30.54
62057;BME280;48016;50.284;18.860;2022-07-23T11:44:37;97991.60;;;34.50;30.85
62057;BME280;48016;50.284;18.860;2022-07-23T11:47:09;97989.52;;;34.54;30.62
62057;BME280;48016;50.284;18.860;2022-07-23T11:49:38;97989.47;;;34.61;30.63
62057;BME280;48016;50.284;18.860;2022-07-23T11:52:12;97989.34;;;34.69;30.03
62057;BME280;48016;50.284;18.860;2022-07-23T11:54:52;97981.30;;;34.71;30.00
62057;BME280;48016;50.284;18.860;2022-07-23T11:57:24;97972.88;;;34.71;29.67
62057;BME280;48016;50.284;18.860;2022-07-23T11:59:55;97967.64;;;34.73;29.84
62057;BME280;48016;50.284;18.860;2022-07-23T12:02:23;97970.83;;;34.75;29.67
62057;BME280;48016;50.284;18.860;2022-07-23T12:04:52;97967.52;;;34.80;29.63
62057;BME280;48016;50.284;18.860;2022-07-23T12:07:30;97967.89;;;34.82;29.43
62057;BME280;48016;50.284;18.860;2022-07-23T12:10:22;97978.27;;;34.85;29.35
62057;BME280;48016;50.284;18.860;2022-07-23T12:13:07;97964.98;;;34.89;29.63
62057;BME280;48016;50.284;18.860;2022-07-23T12:15:56;97963.28;;;34.95;29.91
62057;BME280;48016;50.284;18.860;2022-07-23T12:18:26;97960.09;;;34.93;29.53
62057;BME280;48016;50.284;18.860;2022-07-23T12:20:56;97957.52;;;34.79;29.84
62057;BME280;48016;50.284;18.860;2022-07-23T12:23:25;97960.92;;;34.67;29.95
62057;BME280;48016;50.284;18.860;2022-07-23T12:25:53;97961.58;;;34.47;30.42
62057;BME280;48016;50.284;18.860;2022-07-23T12:28:29;97956.17;;;34.33;30.46
62057;BME280;48016;50.284;18.860;2022-07-23T12:30:58;97954.27;;;34.26;30.35
62057;BME280;48016;50.284;18.860;2022-07-23T12:33:43;97950.02;;;34.14;31.25
62057;BME280;48016;50.284;18.860;2022-07-23T12:36:10;97948.14;;;34.04;31.35
62057;BME280;48016;50.284;18.860;2022-07-23T12:38:47;97943.45;;;33.94;31.57
62057;BME280;48016;50.284;18.860;2022-07-23T12:41:15;97936.79;;;33.81;31.65
62057;BME280;48016;50.284;18.860;2022-07-23T12:43:44;97937.30;;;33.72;31.62
62057;BME280;48016;50.284;18.860;2022-07-23T12:46:17;97935.38;;;33.65;31.50
62057;BME280;48016;50.284;18.860;2022-07-23T12:51:21;97929.13;;;33.47;32.22
62057;BME280;48016;50.284;18.860;2022-07-23T12:53:51;97936.49;;;33.34;32.48
62057;BME280;48016;50.284;18.860;2022-07-23T12:56:21;97936.59;;;33.23;32.46
62057;BME280;48016;50.284;18.860;2022-07-23T12:59:05;97931.91;;;33.13;32.74
62057;BME280;48016;50.284;18.860;2022-07-23T13:01:35;97938.30;;;33.09;33.38
62057;BME280;48016;50.284;18.860;2022-07-23T13:06:32;97943.81;;;33.20;32.86
62057;BME280;48016;50.284;18.860;2022-07-23T13:09:01;97937.38;;;33.23;32.87
62057;BME280;48016;50.284;18.860;2022-07-23T13:11:29;97931.78;;;33.23;33.03
62057;BME280;48016;50.284;18.860;2022-07-23T13:13:56;97936.59;;;33.23;32.72
62057;BME280;48016;50.284;18.860;2022-07-23T13:16:23;97927.44;;;33.19;33.07
62057;BME280;48016;50.284;18.860;2022-07-23T13:18:50;97926.66;;;33.15;33.07
62057;BME280;48016;50.284;18.860;2022-07-23T13:21:18;97923.51;;;33.13;33.18
62057;BME280;48016;50.284;18.860;2022-07-23T13:23:45;97917.47;;;33.14;33.41
62057;BME280;48016;50.284;18.860;2022-07-23T13:26:12;97912.61;;;33.22;33.41
62057;BME280;48016;50.284;18.860;2022-07-23T13:28:39;97910.15;;;33.27;32.95
62057;BME280;48016;50.284;18.860;2022-07-23T13:31:06;97914.83;;;33.38;33.23
62057;BME280;48016;50.284;18.860;2022-07-23T13:33:35;97908.77;;;33.43;33.16
62057;BME280;48016;50.284;18.860;2022-07-23T13:36:03;97918.77;;;33.44;32.95